sensor_id;sensor_type;location;lat;lon;timestamp;P1;durP1;ratioP1;P2;durP2;ratioP2
70078;SDS011;57451;52.496;13.456;2023-04-24T00:01:42;6.37;;;4.00;;
70078;SDS011;57451;52.496;13.456;2023-04-24T00:04:10;6.18;;;4.30;;
70078;SDS011;57451;52.496;13.456;2023-04-24T00:06:38;8.20;;;4.50;;
70078;SDS011;57451;52.496;13.456;2023-04-24T00:09:09;7.90;;;4.15;;
70078;SDS011;57451;52.496;13.456;2023-04-24T00:11:36;5.93;;;3.90;;
70078;SDS011;57451;52.496;13.456;2023-04-24T00:14:04;6.97;;;4.33;;
70078;SDS011;57451;52.496;13.456;2023-04-24T00:16:31;7.60;;;4.30;;
70078;SDS011;57451;52.496;13.456;2023-04-24T00:19:00;7.38;;;4.68;;
70078;SDS011;57451;52.496;13.456;2023-04-24T00:21:27;6.80;;;4.40;;
70078;SDS011;57451;52.496;13.456;2023-04-24T00:23:55;6.93;;;4.25;;
70078;SDS011;57451;52.496;13.456;2023-04-24T00:26:22;6.50;;;4.37;;
70078;SDS011;57451;52.496;13.456;2023-04-24T00:28:50;7.38;;;4.30;;
70078;SDS011;57451;52.496;13.456;2023-04-24T00:31:17;8.45;;;4.47;;
70078;SDS011;57451;52.496;13.456;2023-04-24T00:33:46;7.00;;;4.28;;
70078;SDS011;57451;52.496;13.456;2023-04-24T00:36:14;6.43;;;4.40;;
70078;SDS011;57451;52.496;13.456;2023-04-24T00:38:42;7.20;;;4.70;;
70078;SDS011;57451;52.496;13.456;2023-04-24T00:41:09;7.43;;;4.43;;
70078;SDS011;57451;52.496;13.456;2023-04-24T00:43:37;8.57;;;4.68;;
70078;SDS011;57451;52.496;13.456;2023-04-24T00:46:04;6.97;;;4.68;;
70078;SDS011;57451;52.496;13.456;2023-04-24T00:48:32;7.57;;;4.25;;
70078;SDS011;57451;52.496;13.456;2023-04-24T00:51:01;6.67;;;4.60;;
70078;SDS011;57451;52.496;13.456;2023-04-24T00:53:29;6.78;;;4.50;;
70078;SDS011;57451;52.496;13.456;2023-04-24T00:55:57;7.78;;;4.43;;
70078;SDS011;57451;52.496;13.456;2023-04-24T00:58:25;6.82;;;4.55;;
70078;SDS011;57451;52.496;13.456;2023-04-24T01:00:53;7.65;;;4.88;;
70078;SDS011;57451;52.496;13.456;2023-04-24T01:03:22;8.33;;;4.80;;
70078;SDS011;57451;52.496;13.456;2023-04-24T01:05:53;7.47;;;4.50;;
70078;SDS011;57451;52.496;13.456;2023-04-24T01:08:21;7.28;;;4.47;;
70078;SDS011;57451;52.496;13.456;2023-04-24T01:10:52;7.30;;;4.85;;
70078;SDS011;57451;52.496;13.456;2023-04-24T01:13:20;8.88;;;4.75;;
70078;SDS011;57451;52.496;13.456;2023-04-24T01:15:48;7.20;;;4.83;;
70078;SDS011;57451;52.496;13.456;2023-04-24T01:18:15;6.53;;;4.40;;
70078;SDS011;57451;52.496;13.456;2023-04-24T01:20:43;7.38;;;4.90;;
70078;SDS011;57451;52.496;13.456;2023-04-24T01:23:14;7.80;;;4.47;;
70078;SDS011;57451;52.496;13.456;2023-04-24T01:25:43;7.22;;;5.03;;
70078;SDS011;57451;52.496;13.456;2023-04-24T01:28:11;9.10;;;4.60;;
70078;SDS011;57451;52.496;13.456;2023-04-24T01:30:40;7.20;;;4.50;;
70078;SDS011;57451;52.496;13.456;2023-04-24T01:33:08;7.65;;;4.75;;
70078;SDS011;57451;52.496;13.456;2023-04-24T01:35:36;7.75;;;4.55;;
70078;SDS011;57451;52.496;13.456;2023-04-24T01:38:04;6.78;;;4.43;;
70078;SDS011;57451;52.496;13.456;2023-04-24T01:40:33;6.03;;;4.37;;
70078;SDS011;57451;52.496;13.456;2023-04-24T01:43:01;7.22;;;4.57;;
70078;SDS011;57451;52.496;13.456;2023-04-24T01:45:29;7.35;;;4.53;;
70078;SDS011;57451;52.496;13.456;2023-04-24T01:47:57;7.55;;;4.80;;
70078;SDS011;57451;52.496;13.456;2023-04-24T01:50:25;7.45;;;4.80;;
70078;SDS011;57451;52.496;13.456;2023-04-24T01:52:52;7.07;;;4.20;;
70078;SDS011;57451;52.496;13.456;2023-04-24T01:55:20;7.65;;;4.68;;
70078;SDS011;57451;52.496;13.456;2023-04-24T01:57:48;7.47;;;4.75;;
70078;SDS011;57451;52.496;13.456;2023-04-24T02:00:16;8.25;;;5.00;;
70078;SDS011;57451;52.496;13.456;2023-04-24T02:02:44;8.52;;;5.05;;
70078;SDS011;57451;52.496;13.456;2023-04-24T02:05:14;7.17;;;4.93;;
70078;SDS011;57451;52.496;13.456;2023-04-24T02:07:41;9.57;;;4.60;;
70078;SDS011;57451;52.496;13.456;2023-04-24T02:10:09;7.63;;;4.57;;
70078;SDS011;57451;52.496;13.456;2023-04-24T02:12:41;8.55;;;5.25;;
70078;SDS011;57451;52.496;13.456;2023-04-24T02:15:10;7.80;;;5.28;;
70078;SDS011;57451;52.496;13.456;2023-04-24T02:17:39;6.60;;;4.90;;
70078;SDS011;57451;52.496;13.456;2023-04-24T02:20:07;8.05;;;5.50;;
70078;SDS011;57451;52.496;13.456;2023-04-24T02:22:34;8.32;;;5.40;;
70078;SDS011;57451;52.496;13.456;2023-04-24T02:25:02;8.85;;;5.75;;
70078;SDS011;57451;52.496;13.456;2023-04-24T02:27:30;7.93;;;5.22;;
70078;SDS011;57451;52.496;13.456;2023-04-24T02:29:57;7.67;;;5.30;;
70078;SDS011;57451;52.496;13.456;2023-04-24T02:32:26;8.50;;;5.80;;
70078;SDS011;57451;52.496;13.456;2023-04-24T02:34:53;9.02;;;5.88;;
70078;SDS011;57451;52.496;13.456;2023-04-24T02:37:21;9.43;;;5.65;;
70078;SDS011;57451;52.496;13.456;2023-04-24T02:39:48;8.35;;;5.45;;
70078;SDS011;57451;52.496;13.456;2023-04-24T02:42:15;8.77;;;5.53;;
70078;SDS011;57451;52.496;13.456;2023-04-24T02:44:43;8.65;;;5.40;;
70078;SDS011;57451;52.496;13.456;2023-04-24T02:47:10;9.23;;;5.85;;
70078;SDS011;57451;52.496;13.456;2023-04-24T02:49:39;9.20;;;5.95;;
70078;SDS011;57451;52.496;13.456;2023-04-24T02:52:06;8.23;;;5.78;;
70078;SDS011;57451;52.496;13.456;2023-04-24T02:54:34;8.30;;;5.40;;
70078;SDS011;57451;52.496;13.456;2023-04-24T02:57:01;8.70;;;5.65;;
70078;SDS011;57451;52.496;13.456;2023-04-24T02:59:29;12.80;;;5.93;;
70078;SDS011;57451;52.496;13.456;2023-04-24T03:01:57;8.88;;;5.47;;
70078;SDS011;57451;52.496;13.456;2023-04-24T03:04:24;8.45;;;5.50;;
70078;SDS011;57451;52.496;13.456;2023-04-24T03:06:53;9.13;;;5.93;;
70078;SDS011;57451;52.496;13.456;2023-04-24T03:09:21;9.73;;;5.97;;
70078;SDS011;57451;52.496;13.456;2023-04-24T03:11:49;12.18;;;6.32;;
70078;SDS011;57451;52.496;13.456;2023-04-24T03:14:16;9.70;;;6.15;;
70078;SDS011;57451;52.496;13.456;2023-04-24T03:16:43;9.68;;;5.95;;
70078;SDS011;57451;52.496;13.456;2023-04-24T03:19:11;10.60;;;6.73;;
70078;SDS011;57451;52.496;13.456;2023-04-24T03:21:54;11.10;;;6.30;;
70078;SDS011;57451;52.496;13.456;2023-04-24T03:24:22;12.77;;;6.85;;
70078;SDS011;57451;52.496;13.456;2023-04-24T03:26:50;17.80;;;8.43;;
70078;SDS011;57451;52.496;13.456;2023-04-24T03:29:37;15.38;;;7.68;;
70078;SDS011;57451;52.496;13.456;2023-04-24T03:32:04;12.43;;;6.90;;
70078;SDS011;57451;52.496;13.456;2023-04-24T03:34:33;10.27;;;6.25;;
70078;SDS011;57451;52.496;13.456;2023-04-24T03:37:03;11.93;;;6.88;;
70078;SDS011;57451;52.496;13.456;2023-04-24T03:39:33;10.18;;;6.28;;
70078;SDS011;57451;52.496;13.456;2023-04-24T03:42:00;9.50;;;5.93;;
70078;SDS011;57451;52.496;13.456;2023-04-24T03:44:39;11.53;;;6.60;;
70078;SDS011;57451;52.496;13.456;2023-04-24T03:47:06;9.77;;;5.70;;
70078;SDS011;57451;52.496;13.456;2023-04-24T03:49:35;8.95;;;5.65;;
70078;SDS011;57451;52.496;13.456;2023-04-24T03:52:05;9.30;;;6.18;;
70078;SDS011;57451;52.496;13.456;2023-04-24T03:54:33;9.02;;;5.47;;
70078;SDS011;57451;52.496;13.456;2023-04-24T03:57:00;8.33;;;5.83;;
70078;SDS011;57451;52.496;13.456;2023-04-24T03:59:30;7.05;;;5.45;;
70078;SDS011;57451;52.496;13.456;2023-04-24T04:02:08;9.50;;;5.32;;
70078;SDS011;57451;52.496;13.456;2023-04-24T04:04:36;7.60;;;5.70;;
70078;SDS011;57451;52.496;13.456;2023-04-24T04:07:05;8.32;;;5.50;;
70078;SDS011;57451;52.496;13.456;2023-04-24T04:09:34;8.50;;;5.30;;
70078;SDS011;57451;52.496;13.456;2023-04-24T04:12:02;7.82;;;5.30;;
70078;SDS011;57451;52.496;13.456;2023-04-24T04:14:31;8.93;;;5.88;;
70078;SDS011;57451;52.496;13.456;2023-04-24T04:16:59;8.77;;;5.40;;
70078;SDS011;57451;52.496;13.456;2023-04-24T04:19:26;9.70;;;5.65;;
70078;SDS011;57451;52.496;13.456;2023-04-24T04:21:54;8.73;;;5.43;;
70078;SDS011;57451;52.496;13.456;2023-04-24T04:24:39;9.23;;;5.93;;
70078;SDS011;57451;52.496;13.456;2023-04-24T04:27:08;10.57;;;5.82;;
70078;SDS011;57451;52.496;13.456;2023-04-24T04:29:44;8.98;;;5.50;;
70078;SDS011;57451;52.496;13.456;2023-04-24T04:32:13;9.85;;;5.53;;
70078;SDS011;57451;52.496;13.456;2023-04-24T04:34:42;8.63;;;5.50;;
70078;SDS011;57451;52.496;13.456;2023-04-24T04:37:12;9.35;;;5.00;;
70078;SDS011;57451;52.496;13.456;2023-04-24T04:40:08;7.80;;;4.72;;
70078;SDS011;57451;52.496;13.456;2023-04-24T04:42:48;10.15;;;5.47;;
70078;SDS011;57451;52.496;13.456;2023-04-24T04:45:15;8.93;;;5.45;;
70078;SDS011;57451;52.496;13.456;2023-04-24T04:48:09;7.67;;;5.30;;
70078;SDS011;57451;52.496;13.456;2023-04-24T04:50:40;8.70;;;5.40;;
70078;SDS011;57451;52.496;13.456;2023-04-24T04:53:08;7.95;;;4.78;;
70078;SDS011;57451;52.496;13.456;2023-04-24T04:55:39;7.32;;;4.95;;
70078;SDS011;57451;52.496;13.456;2023-04-24T04:58:10;8.05;;;5.10;;
70078;SDS011;57451;52.496;13.456;2023-04-24T05:00:37;8.63;;;5.23;;
70078;SDS011;57451;52.496;13.456;2023-04-24T05:03:14;9.02;;;5.00;;
70078;SDS011;57451;52.496;13.456;2023-04-24T05:05:53;8.13;;;5.25;;
70078;SDS011;57451;52.496;13.456;2023-04-24T05:08:21;7.13;;;4.70;;
70078;SDS011;57451;52.496;13.456;2023-04-24T05:10:55;8.23;;;4.57;;
70078;SDS011;57451;52.496;13.456;2023-04-24T05:13:24;8.17;;;4.97;;
70078;SDS011;57451;52.496;13.456;2023-04-24T05:16:08;8.13;;;4.82;;
70078;SDS011;57451;52.496;13.456;2023-04-24T05:18:36;6.72;;;4.70;;
70078;SDS011;57451;52.496;13.456;2023-04-24T05:21:05;7.10;;;4.75;;
70078;SDS011;57451;52.496;13.456;2023-04-24T05:23:34;7.10;;;4.72;;
70078;SDS011;57451;52.496;13.456;2023-04-24T05:26:03;8.13;;;5.00;;
70078;SDS011;57451;52.496;13.456;2023-04-24T05:28:34;6.72;;;4.40;;
70078;SDS011;57451;52.496;13.456;2023-04-24T05:31:07;9.20;;;4.22;;
70078;SDS011;57451;52.496;13.456;2023-04-24T05:33:37;9.15;;;4.32;;
70078;SDS011;57451;52.496;13.456;2023-04-24T05:36:05;6.78;;;3.88;;
70078;SDS011;57451;52.496;13.456;2023-04-24T05:38:33;6.20;;;3.77;;
70078;SDS011;57451;52.496;13.456;2023-04-24T05:41:01;5.63;;;3.67;;
70078;SDS011;57451;52.496;13.456;2023-04-24T05:43:29;5.95;;;3.40;;
70078;SDS011;57451;52.496;13.456;2023-04-24T05:45:57;6.43;;;3.50;;
70078;SDS011;57451;52.496;13.456;2023-04-24T05:48:24;8.65;;;3.30;;
70078;SDS011;57451;52.496;13.456;2023-04-24T05:50:52;6.37;;;3.50;;
70078;SDS011;57451;52.496;13.456;2023-04-24T05:53:20;5.40;;;3.05;;
70078;SDS011;57451;52.496;13.456;2023-04-24T05:55:47;6.88;;;3.33;;
70078;SDS011;57451;52.496;13.456;2023-04-24T05:58:15;7.80;;;3.60;;
70078;SDS011;57451;52.496;13.456;2023-04-24T06:00:48;5.43;;;3.15;;
70078;SDS011;57451;52.496;13.456;2023-04-24T06:03:17;5.13;;;2.90;;
70078;SDS011;57451;52.496;13.456;2023-04-24T06:05:47;6.30;;;2.67;;
70078;SDS011;57451;52.496;13.456;2023-04-24T06:08:16;4.95;;;2.17;;
70078;SDS011;57451;52.496;13.456;2023-04-24T06:10:44;4.35;;;2.15;;
70078;SDS011;57451;52.496;13.456;2023-04-24T06:13:11;4.22;;;2.30;;
70078;SDS011;57451;52.496;13.456;2023-04-24T06:15:45;5.73;;;2.53;;
70078;SDS011;57451;52.496;13.456;2023-04-24T06:18:24;4.72;;;2.20;;
70078;SDS011;57451;52.496;13.456;2023-04-24T06:20:52;4.65;;;2.00;;
70078;SDS011;57451;52.496;13.456;2023-04-24T06:23:19;4.75;;;1.90;;
70078;SDS011;57451;52.496;13.456;2023-04-24T06:25:47;4.00;;;1.92;;
70078;SDS011;57451;52.496;13.456;2023-04-24T06:28:14;5.97;;;1.93;;
70078;SDS011;57451;52.496;13.456;2023-04-24T06:30:42;5.18;;;2.05;;
70078;SDS011;57451;52.496;13.456;2023-04-24T06:33:12;3.72;;;2.00;;
70078;SDS011;57451;52.496;13.456;2023-04-24T06:35:44;4.70;;;1.80;;
70078;SDS011;57451;52.496;13.456;2023-04-24T06:38:12;4.22;;;1.90;;
70078;SDS011;57451;52.496;13.456;2023-04-24T06:40:40;4.40;;;2.13;;
70078;SDS011;57451;52.496;13.456;2023-04-24T06:43:07;3.83;;;1.50;;
70078;SDS011;57451;52.496;13.456;2023-04-24T06:45:34;3.50;;;1.52;;
70078;SDS011;57451;52.496;13.456;2023-04-24T06:48:02;4.50;;;1.60;;
70078;SDS011;57451;52.496;13.456;2023-04-24T06:50:31;5.10;;;1.70;;
70078;SDS011;57451;52.496;13.456;2023-04-24T06:52:58;4.60;;;1.60;;
70078;SDS011;57451;52.496;13.456;2023-04-24T06:55:26;3.80;;;1.70;;
70078;SDS011;57451;52.496;13.456;2023-04-24T06:57:53;3.50;;;1.60;;
70078;SDS011;57451;52.496;13.456;2023-04-24T07:00:21;3.95;;;1.60;;
70078;SDS011;57451;52.496;13.456;2023-04-24T07:02:51;3.55;;;1.55;;
70078;SDS011;57451;52.496;13.456;2023-04-24T07:05:18;5.07;;;1.53;;
70078;SDS011;57451;52.496;13.456;2023-04-24T07:07:51;4.22;;;1.40;;
70078;SDS011;57451;52.496;13.456;2023-04-24T07:10:19;4.43;;;1.48;;
70078;SDS011;57451;52.496;13.456;2023-04-24T07:12:46;5.32;;;1.50;;
70078;SDS011;57451;52.496;13.456;2023-04-24T07:15:14;4.00;;;1.50;;
70078;SDS011;57451;52.496;13.456;2023-04-24T07:17:41;4.23;;;1.50;;
70078;SDS011;57451;52.496;13.456;2023-04-24T07:20:12;3.63;;;1.30;;
70078;SDS011;57451;52.496;13.456;2023-04-24T07:22:41;2.97;;;1.20;;
70078;SDS011;57451;52.496;13.456;2023-04-24T07:25:10;3.90;;;1.30;;
70078;SDS011;57451;52.496;13.456;2023-04-24T07:27:38;3.47;;;1.10;;
70078;SDS011;57451;52.496;13.456;2023-04-24T07:30:06;3.10;;;1.23;;
70078;SDS011;57451;52.496;13.456;2023-04-24T07:32:39;3.63;;;1.20;;
70078;SDS011;57451;52.496;13.456;2023-04-24T07:35:06;3.88;;;1.20;;
70078;SDS011;57451;52.496;13.456;2023-04-24T07:37:36;3.22;;;1.08;;
70078;SDS011;57451;52.496;13.456;2023-04-24T07:40:04;2.80;;;1.10;;
70078;SDS011;57451;52.496;13.456;2023-04-24T07:42:34;3.63;;;1.07;;
70078;SDS011;57451;52.496;13.456;2023-04-24T07:45:03;3.00;;;1.00;;
70078;SDS011;57451;52.496;13.456;2023-04-24T07:47:32;3.47;;;1.00;;
70078;SDS011;57451;52.496;13.456;2023-04-24T07:50:00;4.20;;;0.90;;
70078;SDS011;57451;52.496;13.456;2023-04-24T07:52:27;3.40;;;0.77;;
70078;SDS011;57451;52.496;13.456;2023-04-24T07:54:55;3.50;;;0.90;;
70078;SDS011;57451;52.496;13.456;2023-04-24T07:57:25;3.20;;;0.75;;
70078;SDS011;57451;52.496;13.456;2023-04-24T07:59:53;2.83;;;0.80;;
70078;SDS011;57451;52.496;13.456;2023-04-24T08:02:21;2.90;;;1.00;;
70078;SDS011;57451;52.496;13.456;2023-04-24T08:04:53;3.10;;;0.88;;
70078;SDS011;57451;52.496;13.456;2023-04-24T08:07:21;2.50;;;0.80;;
70078;SDS011;57451;52.496;13.456;2023-04-24T08:09:49;3.13;;;0.90;;
70078;SDS011;57451;52.496;13.456;2023-04-24T08:12:17;3.47;;;1.00;;
70078;SDS011;57451;52.496;13.456;2023-04-24T08:14:44;4.03;;;1.20;;
70078;SDS011;57451;52.496;13.456;2023-04-24T08:17:13;3.38;;;1.00;;
70078;SDS011;57451;52.496;13.456;2023-04-24T08:19:40;4.40;;;1.47;;
70078;SDS011;57451;52.496;13.456;2023-04-24T08:22:14;3.40;;;1.30;;
70078;SDS011;57451;52.496;13.456;2023-04-24T08:24:41;3.38;;;1.00;;
70078;SDS011;57451;52.496;13.456;2023-04-24T08:27:10;3.17;;;1.00;;
70078;SDS011;57451;52.496;13.456;2023-04-24T08:29:37;6.85;;;1.10;;
70078;SDS011;57451;52.496;13.456;2023-04-24T08:32:08;3.00;;;0.97;;
70078;SDS011;57451;52.496;13.456;2023-04-24T08:34:37;3.00;;;1.25;;
70078;SDS011;57451;52.496;13.456;2023-04-24T08:37:05;3.33;;;1.00;;
70078;SDS011;57451;52.496;13.456;2023-04-24T08:39:32;3.15;;;1.10;;
70078;SDS011;57451;52.496;13.456;2023-04-24T08:42:00;3.45;;;1.00;;
70078;SDS011;57451;52.496;13.456;2023-04-24T08:44:32;2.87;;;0.90;;
70078;SDS011;57451;52.496;13.456;2023-04-24T08:47:00;3.78;;;0.90;;
70078;SDS011;57451;52.496;13.456;2023-04-24T08:49:29;2.72;;;0.80;;
70078;SDS011;57451;52.496;13.456;2023-04-24T08:51:58;3.08;;;0.88;;
70078;SDS011;57451;52.496;13.456;2023-04-24T08:54:26;2.70;;;0.90;;
70078;SDS011;57451;52.496;13.456;2023-04-24T08:56:57;2.90;;;0.80;;
70078;SDS011;57451;52.496;13.456;2023-04-24T08:59:28;4.00;;;1.00;;
70078;SDS011;57451;52.496;13.456;2023-04-24T09:01:56;2.85;;;0.85;;
70078;SDS011;57451;52.496;13.456;2023-04-24T09:04:24;2.80;;;0.90;;
70078;SDS011;57451;52.496;13.456;2023-04-24T09:06:53;2.50;;;0.80;;
70078;SDS011;57451;52.496;13.456;2023-04-24T09:09:24;2.60;;;0.90;;
70078;SDS011;57451;52.496;13.456;2023-04-24T09:11:52;2.70;;;0.90;;
70078;SDS011;57451;52.496;13.456;2023-04-24T09:14:23;2.72;;;0.80;;
70078;SDS011;57451;52.496;13.456;2023-04-24T09:16:51;3.20;;;0.90;;
70078;SDS011;57451;52.496;13.456;2023-04-24T09:19:19;3.13;;;1.05;;
70078;SDS011;57451;52.496;13.456;2023-04-24T09:21:48;2.60;;;1.00;;
70078;SDS011;57451;52.496;13.456;2023-04-24T09:24:16;3.38;;;0.90;;
70078;SDS011;57451;52.496;13.456;2023-04-24T09:26:46;3.92;;;1.00;;
70078;SDS011;57451;52.496;13.456;2023-04-24T09:29:14;4.10;;;1.00;;
70078;SDS011;57451;52.496;13.456;2023-04-24T09:31:43;3.17;;;0.98;;
70078;SDS011;57451;52.496;13.456;2023-04-24T09:34:12;3.13;;;1.30;;
70078;SDS011;57451;52.496;13.456;2023-04-24T09:36:40;2.80;;;1.00;;
70078;SDS011;57451;52.496;13.456;2023-04-24T09:39:10;3.10;;;0.98;;
70078;SDS011;57451;52.496;13.456;2023-04-24T09:41:43;4.70;;;1.10;;
70078;SDS011;57451;52.496;13.456;2023-04-24T09:44:14;3.05;;;1.10;;
70078;SDS011;57451;52.496;13.456;2023-04-24T09:46:42;4.17;;;1.17;;
70078;SDS011;57451;52.496;13.456;2023-04-24T09:49:12;3.70;;;1.10;;
70078;SDS011;57451;52.496;13.456;2023-04-24T09:51:41;3.53;;;0.90;;
70078;SDS011;57451;52.496;13.456;2023-04-24T09:54:13;3.72;;;1.10;;
70078;SDS011;57451;52.496;13.456;2023-04-24T09:56:43;3.30;;;1.00;;
70078;SDS011;57451;52.496;13.456;2023-04-24T09:59:13;4.10;;;1.10;;
70078;SDS011;57451;52.496;13.456;2023-04-24T10:01:41;3.17;;;1.20;;
70078;SDS011;57451;52.496;13.456;2023-04-24T10:04:17;3.05;;;0.90;;
70078;SDS011;57451;52.496;13.456;2023-04-24T10:06:46;2.70;;;0.90;;
70078;SDS011;57451;52.496;13.456;2023-04-24T10:09:15;3.60;;;1.00;;
70078;SDS011;57451;52.496;13.456;2023-04-24T10:11:44;2.67;;;0.90;;
70078;SDS011;57451;52.496;13.456;2023-04-24T10:14:15;5.15;;;1.30;;
70078;SDS011;57451;52.496;13.456;2023-04-24T10:16:43;3.17;;;1.00;;
70078;SDS011;57451;52.496;13.456;2023-04-24T10:19:13;3.65;;;1.13;;
70078;SDS011;57451;52.496;13.456;2023-04-24T10:21:42;2.75;;;1.08;;
70078;SDS011;57451;52.496;13.456;2023-04-24T10:24:13;2.63;;;0.90;;
70078;SDS011;57451;52.496;13.456;2023-04-24T10:26:42;3.88;;;1.00;;
70078;SDS011;57451;52.496;13.456;2023-04-24T10:29:11;2.90;;;1.00;;
70078;SDS011;57451;52.496;13.456;2023-04-24T10:31:42;3.35;;;0.90;;
70078;SDS011;57451;52.496;13.456;2023-04-24T10:34:14;3.00;;;1.10;;
70078;SDS011;57451;52.496;13.456;2023-04-24T10:36:43;4.47;;;1.00;;
70078;SDS011;57451;52.496;13.456;2023-04-24T10:39:13;3.03;;;0.75;;
70078;SDS011;57451;52.496;13.456;2023-04-24T10:41:42;2.85;;;1.00;;
70078;SDS011;57451;52.496;13.456;2023-04-24T10:44:11;2.88;;;0.90;;
70078;SDS011;57451;52.496;13.456;2023-04-24T10:46:43;2.70;;;0.80;;
70078;SDS011;57451;52.496;13.456;2023-04-24T10:49:12;3.33;;;0.90;;
70078;SDS011;57451;52.496;13.456;2023-04-24T10:51:46;2.80;;;0.90;;
70078;SDS011;57451;52.496;13.456;2023-04-24T10:54:24;3.47;;;0.88;;
70078;SDS011;57451;52.496;13.456;2023-04-24T10:56:53;3.67;;;1.10;;
70078;SDS011;57451;52.496;13.456;2023-04-24T10:59:41;3.50;;;1.00;;
70078;SDS011;57451;52.496;13.456;2023-04-24T11:02:09;3.57;;;1.10;;
70078;SDS011;57451;52.496;13.456;2023-04-24T11:04:53;4.37;;;1.40;;
70078;SDS011;57451;52.496;13.456;2023-04-24T11:07:24;4.18;;;1.10;;
70078;SDS011;57451;52.496;13.456;2023-04-24T11:09:57;2.80;;;0.95;;
70078;SDS011;57451;52.496;13.456;2023-04-24T11:12:27;4.22;;;1.15;;
70078;SDS011;57451;52.496;13.456;2023-04-24T11:14:59;4.97;;;1.10;;
70078;SDS011;57451;52.496;13.456;2023-04-24T11:17:31;3.50;;;1.13;;
70078;SDS011;57451;52.496;13.456;2023-04-24T11:20:02;3.42;;;1.10;;
70078;SDS011;57451;52.496;13.456;2023-04-24T11:22:52;3.47;;;1.20;;
70078;SDS011;57451;52.496;13.456;2023-04-24T11:25:24;4.60;;;1.02;;
70078;SDS011;57451;52.496;13.456;2023-04-24T11:28:02;3.88;;;1.15;;
70078;SDS011;57451;52.496;13.456;2023-04-24T11:30:31;3.00;;;1.10;;
70078;SDS011;57451;52.496;13.456;2023-04-24T11:33:02;3.47;;;1.27;;
70078;SDS011;57451;52.496;13.456;2023-04-24T11:35:36;5.20;;;1.35;;
70078;SDS011;57451;52.496;13.456;2023-04-24T11:38:06;3.47;;;1.35;;
70078;SDS011;57451;52.496;13.456;2023-04-24T11:40:50;4.32;;;1.50;;
70078;SDS011;57451;52.496;13.456;2023-04-24T11:43:18;2.83;;;1.27;;
70078;SDS011;57451;52.496;13.456;2023-04-24T11:45:47;3.88;;;1.20;;
70078;SDS011;57451;52.496;13.456;2023-04-24T11:48:18;3.92;;;1.23;;
70078;SDS011;57451;52.496;13.456;2023-04-24T11:50:50;5.13;;;1.40;;
70078;SDS011;57451;52.496;13.456;2023-04-24T11:53:18;3.47;;;1.35;;
70078;SDS011;57451;52.496;13.456;2023-04-24T11:55:46;3.30;;;1.30;;
70078;SDS011;57451;52.496;13.456;2023-04-24T11:58:13;4.53;;;1.40;;
70078;SDS011;57451;52.496;13.456;2023-04-24T12:00:40;4.35;;;1.70;;
70078;SDS011;57451;52.496;13.456;2023-04-24T12:03:08;5.00;;;1.30;;
70078;SDS011;57451;52.496;13.456;2023-04-24T12:05:37;5.03;;;1.40;;
70078;SDS011;57451;52.496;13.456;2023-04-24T12:08:07;4.13;;;1.30;;
70078;SDS011;57451;52.496;13.456;2023-04-24T12:10:35;3.72;;;1.10;;
70078;SDS011;57451;52.496;13.456;2023-04-24T12:13:02;3.42;;;1.33;;
70078;SDS011;57451;52.496;13.456;2023-04-24T12:15:29;3.70;;;1.25;;
70078;SDS011;57451;52.496;13.456;2023-04-24T12:17:57;2.78;;;1.10;;
70078;SDS011;57451;52.496;13.456;2023-04-24T12:20:24;3.60;;;1.40;;
70078;SDS011;57451;52.496;13.456;2023-04-24T12:22:54;3.13;;;1.23;;
70078;SDS011;57451;52.496;13.456;2023-04-24T12:25:24;3.63;;;1.20;;
70078;SDS011;57451;52.496;13.456;2023-04-24T12:27:53;3.58;;;1.45;;
70078;SDS011;57451;52.496;13.456;2023-04-24T12:30:25;4.30;;;1.50;;
70078;SDS011;57451;52.496;13.456;2023-04-24T12:32:56;3.37;;;1.47;;
70078;SDS011;57451;52.496;13.456;2023-04-24T12:35:25;5.93;;;1.30;;
70078;SDS011;57451;52.496;13.456;2023-04-24T12:37:53;5.55;;;1.30;;
70078;SDS011;57451;52.496;13.456;2023-04-24T12:40:21;3.05;;;0.93;;
70078;SDS011;57451;52.496;13.456;2023-04-24T12:42:53;3.05;;;1.20;;
70078;SDS011;57451;52.496;13.456;2023-04-24T12:45:22;3.10;;;1.00;;
70078;SDS011;57451;52.496;13.456;2023-04-24T12:47:51;2.60;;;1.02;;
70078;SDS011;57451;52.496;13.456;2023-04-24T12:50:19;2.95;;;1.00;;
70078;SDS011;57451;52.496;13.456;2023-04-24T12:52:46;3.63;;;1.10;;
70078;SDS011;57451;52.496;13.456;2023-04-24T12:55:14;2.78;;;1.08;;
70078;SDS011;57451;52.496;13.456;2023-04-24T12:57:41;4.23;;;1.13;;
70078;SDS011;57451;52.496;13.456;2023-04-24T13:00:10;3.95;;;1.00;;
70078;SDS011;57451;52.496;13.456;2023-04-24T13:02:38;3.42;;;1.05;;
70078;SDS011;57451;52.496;13.456;2023-04-24T13:05:05;2.83;;;1.15;;
70078;SDS011;57451;52.496;13.456;2023-04-24T13:07:33;3.40;;;1.10;;
70078;SDS011;57451;52.496;13.456;2023-04-24T13:10:00;2.63;;;0.90;;
70078;SDS011;57451;52.496;13.456;2023-04-24T13:12:28;4.18;;;1.10;;
70078;SDS011;57451;52.496;13.456;2023-04-24T13:14:55;4.45;;;1.10;;
70078;SDS011;57451;52.496;13.456;2023-04-24T13:17:26;2.97;;;1.00;;
70078;SDS011;57451;52.496;13.456;2023-04-24T13:19:53;3.30;;;1.13;;
70078;SDS011;57451;52.496;13.456;2023-04-24T13:22:21;3.63;;;1.20;;
70078;SDS011;57451;52.496;13.456;2023-04-24T13:24:48;2.63;;;0.90;;
70078;SDS011;57451;52.496;13.456;2023-04-24T13:27:16;2.78;;;0.90;;
70078;SDS011;57451;52.496;13.456;2023-04-24T13:29:43;2.90;;;1.00;;
70078;SDS011;57451;52.496;13.456;2023-04-24T13:32:11;2.85;;;1.08;;
70078;SDS011;57451;52.496;13.456;2023-04-24T13:34:39;2.63;;;1.00;;
70078;SDS011;57451;52.496;13.456;2023-04-24T13:37:07;2.70;;;0.80;;
70078;SDS011;57451;52.496;13.456;2023-04-24T13:39:34;3.33;;;1.00;;
70078;SDS011;57451;52.496;13.456;2023-04-24T13:42:02;2.80;;;0.90;;
70078;SDS011;57451;52.496;13.456;2023-04-24T13:44:31;2.83;;;1.00;;
70078;SDS011;57451;52.496;13.456;2023-04-24T13:46:58;3.80;;;0.90;;
70078;SDS011;57451;52.496;13.456;2023-04-24T13:49:26;2.90;;;0.98;;
70078;SDS011;57451;52.496;13.456;2023-04-24T13:51:55;3.13;;;0.90;;
70078;SDS011;57451;52.496;13.456;2023-04-24T13:54:22;2.85;;;0.90;;
70078;SDS011;57451;52.496;13.456;2023-04-24T13:56:50;3.05;;;1.00;;
70078;SDS011;57451;52.496;13.456;2023-04-24T13:59:18;2.70;;;1.10;;
70078;SDS011;57451;52.496;13.456;2023-04-24T14:01:47;2.63;;;1.00;;
70078;SDS011;57451;52.496;13.456;2023-04-24T14:04:15;3.00;;;1.10;;
70078;SDS011;57451;52.496;13.456;2023-04-24T14:06:43;4.50;;;1.30;;
70078;SDS011;57451;52.496;13.456;2023-04-24T14:09:11;3.30;;;1.10;;
70078;SDS011;57451;52.496;13.456;2023-04-24T14:11:39;4.13;;;1.27;;
70078;SDS011;57451;52.496;13.456;2023-04-24T14:14:07;2.70;;;1.20;;
70078;SDS011;57451;52.496;13.456;2023-04-24T14:16:34;3.30;;;1.20;;
70078;SDS011;57451;52.496;13.456;2023-04-24T14:19:02;2.90;;;1.30;;
70078;SDS011;57451;52.496;13.456;2023-04-24T14:21:29;3.45;;;1.10;;
70078;SDS011;57451;52.496;13.456;2023-04-24T14:23:57;3.87;;;1.10;;
70078;SDS011;57451;52.496;13.456;2023-04-24T14:26:25;2.90;;;1.10;;
70078;SDS011;57451;52.496;13.456;2023-04-24T14:28:52;3.00;;;1.00;;
70078;SDS011;57451;52.496;13.456;2023-04-24T14:31:37;3.25;;;1.13;;
70078;SDS011;57451;52.496;13.456;2023-04-24T14:34:04;3.15;;;1.10;;
70078;SDS011;57451;52.496;13.456;2023-04-24T14:36:31;2.70;;;1.10;;
70078;SDS011;57451;52.496;13.456;2023-04-24T14:38:58;3.20;;;1.17;;
70078;SDS011;57451;52.496;13.456;2023-04-24T14:41:27;3.45;;;1.30;;
70078;SDS011;57451;52.496;13.456;2023-04-24T14:43:54;3.08;;;1.20;;
70078;SDS011;57451;52.496;13.456;2023-04-24T14:46:21;2.80;;;1.10;;